sensor_id;sensor_type;location;lat;lon;timestamp;P1;durP1;ratioP1;P2;durP2;ratioP2
42084;SDS011;27746;52.228;20.890;2023-12-07T00:04:40;64.25;;;23.50;;
42084;SDS011;27746;52.228;20.890;2023-12-07T00:07:07;66.30;;;23.30;;
42084;SDS011;27746;52.228;20.890;2023-12-07T00:09:34;68.00;;;26.23;;
42084;SDS011;27746;52.228;20.890;2023-12-07T00:12:02;60.42;;;25.63;;
42084;SDS011;27746;52.228;20.890;2023-12-07T00:14:29;52.38;;;22.30;;
42084;SDS011;27746;52.228;20.890;2023-12-07T00:16:56;60.83;;;23.83;;
42084;SDS011;27746;52.228;20.890;2023-12-07T00:19:23;58.10;;;23.98;;
42084;SDS011;27746;52.228;20.890;2023-12-07T00:21:51;59.75;;;24.90;;
42084;SDS011;27746;52.228;20.890;2023-12-07T00:24:19;59.72;;;22.40;;
42084;SDS011;27746;52.228;20.890;2023-12-07T00:26:46;59.50;;;22.92;;
42084;SDS011;27746;52.228;20.890;2023-12-07T00:29:13;61.25;;;24.58;;
42084;SDS011;27746;52.228;20.890;2023-12-07T00:31:40;60.75;;;24.52;;
42084;SDS011;27746;52.228;20.890;2023-12-07T00:34:09;61.10;;;23.77;;
42084;SDS011;27746;52.228;20.890;2023-12-07T00:36:36;62.47;;;22.80;;
42084;SDS011;27746;52.228;20.890;2023-12-07T00:39:06;62.78;;;24.15;;
42084;SDS011;27746;52.228;20.890;2023-12-07T00:41:34;63.42;;;23.52;;
42084;SDS011;27746;52.228;20.890;2023-12-07T00:44:01;55.65;;;22.38;;
42084;SDS011;27746;52.228;20.890;2023-12-07T00:46:28;56.72;;;23.58;;
42084;SDS011;27746;52.228;20.890;2023-12-07T00:48:55;53.83;;;23.25;;
42084;SDS011;27746;52.228;20.890;2023-12-07T00:51:22;62.88;;;25.40;;
42084;SDS011;27746;52.228;20.890;2023-12-07T00:53:50;60.25;;;24.10;;
42084;SDS011;27746;52.228;20.890;2023-12-07T00:56:18;66.07;;;24.15;;
42084;SDS011;27746;52.228;20.890;2023-12-07T00:58:45;59.97;;;23.65;;
42084;SDS011;27746;52.228;20.890;2023-12-07T01:01:13;60.10;;;24.42;;
42084;SDS011;27746;52.228;20.890;2023-12-07T01:03:40;63.22;;;23.67;;
42084;SDS011;27746;52.228;20.890;2023-12-07T01:06:07;59.20;;;23.92;;
42084;SDS011;27746;52.228;20.890;2023-12-07T01:08:36;72.95;;;23.83;;
42084;SDS011;27746;52.228;20.890;2023-12-07T01:11:03;62.38;;;25.90;;
42084;SDS011;27746;52.228;20.890;2023-12-07T01:13:32;59.90;;;24.10;;
42084;SDS011;27746;52.228;20.890;2023-12-07T01:16:01;69.03;;;25.90;;
42084;SDS011;27746;52.228;20.890;2023-12-07T01:18:28;60.97;;;24.83;;
42084;SDS011;27746;52.228;20.890;2023-12-07T01:20:55;68.65;;;26.13;;
42084;SDS011;27746;52.228;20.890;2023-12-07T01:23:22;64.47;;;24.42;;
42084;SDS011;27746;52.228;20.890;2023-12-07T01:25:49;58.42;;;24.48;;
42084;SDS011;27746;52.228;20.890;2023-12-07T01:28:16;62.35;;;24.70;;
42084;SDS011;27746;52.228;20.890;2023-12-07T01:30:45;58.33;;;24.15;;
42084;SDS011;27746;52.228;20.890;2023-12-07T01:33:12;59.70;;;26.45;;
42084;SDS011;27746;52.228;20.890;2023-12-07T01:35:40;62.35;;;23.77;;
42084;SDS011;27746;52.228;20.890;2023-12-07T01:38:08;68.72;;;23.15;;
42084;SDS011;27746;52.228;20.890;2023-12-07T01:40:35;70.90;;;25.38;;
42084;SDS011;27746;52.228;20.890;2023-12-07T01:43:02;64.10;;;26.60;;
42084;SDS011;27746;52.228;20.890;2023-12-07T01:45:29;68.03;;;24.85;;
42084;SDS011;27746;52.228;20.890;2023-12-07T01:47:58;67.55;;;25.25;;
42084;SDS011;27746;52.228;20.890;2023-12-07T01:50:25;64.55;;;25.98;;
42084;SDS011;27746;52.228;20.890;2023-12-07T01:52:54;70.50;;;24.95;;
42084;SDS011;27746;52.228;20.890;2023-12-07T01:55:22;69.13;;;25.45;;
42084;SDS011;27746;52.228;20.890;2023-12-07T01:57:51;72.30;;;24.80;;
42084;SDS011;27746;52.228;20.890;2023-12-07T02:00:18;74.85;;;25.90;;
42084;SDS011;27746;52.228;20.890;2023-12-07T02:02:47;73.90;;;26.58;;
42084;SDS011;27746;52.228;20.890;2023-12-07T02:05:16;78.80;;;27.27;;
42084;SDS011;27746;52.228;20.890;2023-12-07T02:07:43;80.07;;;27.52;;
42084;SDS011;27746;52.228;20.890;2023-12-07T02:10:10;72.53;;;27.13;;
42084;SDS011;27746;52.228;20.890;2023-12-07T02:12:39;63.22;;;24.02;;
42084;SDS011;27746;52.228;20.890;2023-12-07T02:15:06;75.60;;;25.13;;
42084;SDS011;27746;52.228;20.890;2023-12-07T02:17:38;72.25;;;27.55;;
42084;SDS011;27746;52.228;20.890;2023-12-07T02:20:08;77.07;;;26.50;;
42084;SDS011;27746;52.228;20.890;2023-12-07T02:22:41;83.35;;;28.55;;
42084;SDS011;27746;52.228;20.890;2023-12-07T02:25:09;84.10;;;25.70;;
42084;SDS011;27746;52.228;20.890;2023-12-07T02:27:39;76.40;;;27.98;;
42084;SDS011;27746;52.228;20.890;2023-12-07T02:30:06;82.97;;;28.17;;
42084;SDS011;27746;52.228;20.890;2023-12-07T02:32:34;75.00;;;27.73;;
42084;SDS011;27746;52.228;20.890;2023-12-07T02:35:01;75.00;;;26.95;;
42084;SDS011;27746;52.228;20.890;2023-12-07T02:37:30;70.53;;;24.55;;
42084;SDS011;27746;52.228;20.890;2023-12-07T02:39:59;67.47;;;24.40;;
42084;SDS011;27746;52.228;20.890;2023-12-07T02:42:29;76.55;;;26.67;;
42084;SDS011;27746;52.228;20.890;2023-12-07T02:44:59;67.40;;;23.42;;
42084;SDS011;27746;52.228;20.890;2023-12-07T02:47:26;71.90;;;25.05;;
42084;SDS011;27746;52.228;20.890;2023-12-07T02:49:55;76.25;;;24.48;;
42084;SDS011;27746;52.228;20.890;2023-12-07T02:52:23;71.28;;;25.08;;
42084;SDS011;27746;52.228;20.890;2023-12-07T02:54:50;68.82;;;24.13;;
42084;SDS011;27746;52.228;20.890;2023-12-07T02:57:17;68.97;;;25.92;;
42084;SDS011;27746;52.228;20.890;2023-12-07T02:59:44;69.30;;;25.73;;
42084;SDS011;27746;52.228;20.890;2023-12-07T03:02:13;74.43;;;24.20;;
42084;SDS011;27746;52.228;20.890;2023-12-07T03:04:40;72.93;;;24.85;;
42084;SDS011;27746;52.228;20.890;2023-12-07T03:07:08;61.25;;;24.98;;
42084;SDS011;27746;52.228;20.890;2023-12-07T03:09:35;77.25;;;24.80;;
42084;SDS011;27746;52.228;20.890;2023-12-07T03:12:02;71.68;;;22.95;;
42084;SDS011;27746;52.228;20.890;2023-12-07T03:14:32;70.25;;;24.17;;
42084;SDS011;27746;52.228;20.890;2023-12-07T03:16:59;56.92;;;21.80;;
42084;SDS011;27746;52.228;20.890;2023-12-07T03:19:27;65.82;;;23.98;;
42084;SDS011;27746;52.228;20.890;2023-12-07T03:21:57;63.90;;;21.88;;
42084;SDS011;27746;52.228;20.890;2023-12-07T03:24:24;58.72;;;21.60;;
42084;SDS011;27746;52.228;20.890;2023-12-07T03:26:51;60.97;;;23.02;;
42084;SDS011;27746;52.228;20.890;2023-12-07T03:29:18;65.68;;;20.98;;
42084;SDS011;27746;52.228;20.890;2023-12-07T03:31:46;62.53;;;23.30;;
42084;SDS011;27746;52.228;20.890;2023-12-07T03:34:13;61.55;;;25.80;;
42084;SDS011;27746;52.228;20.890;2023-12-07T03:36:44;67.45;;;23.42;;
42084;SDS011;27746;52.228;20.890;2023-12-07T03:39:11;53.72;;;21.15;;
42084;SDS011;27746;52.228;20.890;2023-12-07T03:41:38;54.50;;;21.55;;
42084;SDS011;27746;52.228;20.890;2023-12-07T03:44:05;59.45;;;21.38;;
42084;SDS011;27746;52.228;20.890;2023-12-07T03:46:32;58.88;;;22.45;;
42084;SDS011;27746;52.228;20.890;2023-12-07T03:48:59;57.72;;;22.50;;
42084;SDS011;27746;52.228;20.890;2023-12-07T03:51:27;60.78;;;21.80;;
42084;SDS011;27746;52.228;20.890;2023-12-07T03:53:55;57.42;;;22.45;;
42084;SDS011;27746;52.228;20.890;2023-12-07T03:56:23;53.47;;;22.23;;
42084;SDS011;27746;52.228;20.890;2023-12-07T03:58:50;55.10;;;22.10;;
42084;SDS011;27746;52.228;20.890;2023-12-07T04:01:17;55.40;;;20.25;;
42084;SDS011;27746;52.228;20.890;2023-12-07T04:03:48;57.42;;;20.33;;
42084;SDS011;27746;52.228;20.890;2023-12-07T04:06:15;63.70;;;24.00;;
42084;SDS011;27746;52.228;20.890;2023-12-07T04:08:43;52.80;;;20.80;;
42084;SDS011;27746;52.228;20.890;2023-12-07T04:11:12;54.72;;;23.10;;
42084;SDS011;27746;52.228;20.890;2023-12-07T04:13:41;55.83;;;22.70;;
42084;SDS011;27746;52.228;20.890;2023-12-07T04:16:09;63.20;;;22.63;;
42084;SDS011;27746;52.228;20.890;2023-12-07T04:18:36;55.92;;;21.92;;
42084;SDS011;27746;52.228;20.890;2023-12-07T04:21:04;51.60;;;20.20;;
42084;SDS011;27746;52.228;20.890;2023-12-07T04:23:31;47.05;;;21.48;;
42084;SDS011;27746;52.228;20.890;2023-12-07T04:25:58;57.45;;;19.92;;
42084;SDS011;27746;52.228;20.890;2023-12-07T04:28:27;47.97;;;20.33;;
42084;SDS011;27746;52.228;20.890;2023-12-07T04:30:54;49.95;;;21.08;;
42084;SDS011;27746;52.228;20.890;2023-12-07T04:33:21;55.40;;;20.70;;
42084;SDS011;27746;52.228;20.890;2023-12-07T04:35:48;57.58;;;21.20;;
42084;SDS011;27746;52.228;20.890;2023-12-07T04:38:15;48.88;;;18.60;;
42084;SDS011;27746;52.228;20.890;2023-12-07T04:40:42;50.47;;;19.90;;
42084;SDS011;27746;52.228;20.890;2023-12-07T04:43:09;59.40;;;21.77;;
42084;SDS011;27746;52.228;20.890;2023-12-07T04:45:38;56.88;;;21.75;;
42084;SDS011;27746;52.228;20.890;2023-12-07T04:48:04;56.20;;;21.20;;
42084;SDS011;27746;52.228;20.890;2023-12-07T04:50:31;56.38;;;21.13;;
42084;SDS011;27746;52.228;20.890;2023-12-07T04:53:01;54.28;;;23.27;;
42084;SDS011;27746;52.228;20.890;2023-12-07T04:55:28;52.35;;;20.05;;
42084;SDS011;27746;52.228;20.890;2023-12-07T04:57:55;50.08;;;19.92;;
42084;SDS011;27746;52.228;20.890;2023-12-07T05:00:22;53.40;;;20.67;;
42084;SDS011;27746;52.228;20.890;2023-12-07T05:02:51;54.30;;;19.60;;
42084;SDS011;27746;52.228;20.890;2023-12-07T05:05:18;52.20;;;19.40;;
42084;SDS011;27746;52.228;20.890;2023-12-07T05:07:45;50.30;;;21.65;;
42084;SDS011;27746;52.228;20.890;2023-12-07T05:10:11;58.95;;;24.52;;
42084;SDS011;27746;52.228;20.890;2023-12-07T05:12:39;58.60;;;20.98;;
42084;SDS011;27746;52.228;20.890;2023-12-07T05:15:06;56.33;;;21.48;;
42084;SDS011;27746;52.228;20.890;2023-12-07T05:17:34;54.50;;;20.05;;
42084;SDS011;27746;52.228;20.890;2023-12-07T05:20:02;62.60;;;22.98;;
42084;SDS011;27746;52.228;20.890;2023-12-07T05:22:31;52.20;;;20.67;;
42084;SDS011;27746;52.228;20.890;2023-12-07T05:24:58;50.60;;;18.15;;
42084;SDS011;27746;52.228;20.890;2023-12-07T05:27:25;54.40;;;20.60;;
42084;SDS011;27746;52.228;20.890;2023-12-07T05:29:52;56.08;;;19.88;;
42084;SDS011;27746;52.228;20.890;2023-12-07T05:32:19;49.40;;;18.50;;
42084;SDS011;27746;52.228;20.890;2023-12-07T05:34:47;46.88;;;18.67;;
42084;SDS011;27746;52.228;20.890;2023-12-07T05:37:16;53.28;;;19.98;;
42084;SDS011;27746;52.228;20.890;2023-12-07T05:39:43;58.63;;;20.67;;
42084;SDS011;27746;52.228;20.890;2023-12-07T05:42:10;53.83;;;20.55;;
42084;SDS011;27746;52.228;20.890;2023-12-07T05:44:37;55.78;;;19.33;;
42084;SDS011;27746;52.228;20.890;2023-12-07T05:47:04;51.97;;;21.20;;
42084;SDS011;27746;52.228;20.890;2023-12-07T05:49:31;48.60;;;20.55;;
42084;SDS011;27746;52.228;20.890;2023-12-07T05:51:58;48.33;;;20.00;;
42084;SDS011;27746;52.228;20.890;2023-12-07T05:54:26;53.10;;;21.23;;
42084;SDS011;27746;52.228;20.890;2023-12-07T05:56:52;48.92;;;20.65;;
42084;SDS011;27746;52.228;20.890;2023-12-07T05:59:20;42.88;;;20.25;;
42084;SDS011;27746;52.228;20.890;2023-12-07T06:01:47;51.00;;;18.38;;
42084;SDS011;27746;52.228;20.890;2023-12-07T06:04:15;48.67;;;20.25;;
42084;SDS011;27746;52.228;20.890;2023-12-07T06:06:42;52.45;;;20.02;;
42084;SDS011;27746;52.228;20.890;2023-12-07T06:09:09;44.20;;;19.92;;
42084;SDS011;27746;52.228;20.890;2023-12-07T06:11:38;50.03;;;20.10;;
42084;SDS011;27746;52.228;20.890;2023-12-07T06:14:05;50.10;;;20.83;;
42084;SDS011;27746;52.228;20.890;2023-12-07T06:16:32;53.40;;;19.95;;
42084;SDS011;27746;52.228;20.890;2023-12-07T06:19:00;48.75;;;20.42;;
42084;SDS011;27746;52.228;20.890;2023-12-07T06:21:27;41.55;;;18.30;;
42084;SDS011;27746;52.228;20.890;2023-12-07T06:23:55;55.10;;;20.35;;
42084;SDS011;27746;52.228;20.890;2023-12-07T06:26:23;47.40;;;18.15;;
42084;SDS011;27746;52.228;20.890;2023-12-07T06:28:52;46.78;;;19.02;;
42084;SDS011;27746;52.228;20.890;2023-12-07T06:31:19;49.20;;;18.90;;
42084;SDS011;27746;52.228;20.890;2023-12-07T06:33:46;44.60;;;19.25;;
42084;SDS011;27746;52.228;20.890;2023-12-07T06:36:17;45.67;;;18.63;;
42084;SDS011;27746;52.228;20.890;2023-12-07T06:38:45;52.60;;;21.10;;
42084;SDS011;27746;52.228;20.890;2023-12-07T06:41:13;41.13;;;18.08;;
42084;SDS011;27746;52.228;20.890;2023-12-07T06:43:41;44.90;;;18.00;;
42084;SDS011;27746;52.228;20.890;2023-12-07T06:46:11;43.80;;;19.15;;
42084;SDS011;27746;52.228;20.890;2023-12-07T06:48:38;49.25;;;19.20;;
42084;SDS011;27746;52.228;20.890;2023-12-07T06:51:05;42.15;;;17.33;;
42084;SDS011;27746;52.228;20.890;2023-12-07T06:53:32;55.28;;;20.52;;
42084;SDS011;27746;52.228;20.890;2023-12-07T06:55:59;46.03;;;19.23;;
42084;SDS011;27746;52.228;20.890;2023-12-07T06:58:26;46.83;;;20.00;;
42084;SDS011;27746;52.228;20.890;2023-12-07T07:00:53;47.67;;;20.92;;
42084;SDS011;27746;52.228;20.890;2023-12-07T07:03:21;46.35;;;19.40;;
42084;SDS011;27746;52.228;20.890;2023-12-07T07:05:49;43.55;;;20.73;;
42084;SDS011;27746;52.228;20.890;2023-12-07T07:08:16;49.42;;;19.42;;
42084;SDS011;27746;52.228;20.890;2023-12-07T07:10:43;45.15;;;19.35;;
42084;SDS011;27746;52.228;20.890;2023-12-07T07:13:11;46.22;;;20.90;;
42084;SDS011;27746;52.228;20.890;2023-12-07T07:15:41;47.22;;;18.20;;
42084;SDS011;27746;52.228;20.890;2023-12-07T07:18:08;43.63;;;18.00;;
42084;SDS011;27746;52.228;20.890;2023-12-07T07:20:36;49.28;;;20.67;;
42084;SDS011;27746;52.228;20.890;2023-12-07T07:23:03;48.90;;;18.83;;
42084;SDS011;27746;52.228;20.890;2023-12-07T07:25:30;50.10;;;20.73;;
42084;SDS011;27746;52.228;20.890;2023-12-07T07:27:58;50.42;;;18.95;;
42084;SDS011;27746;52.228;20.890;2023-12-07T07:30:25;47.17;;;21.02;;
42084;SDS011;27746;52.228;20.890;2023-12-07T07:32:52;46.30;;;19.65;;
42084;SDS011;27746;52.228;20.890;2023-12-07T07:35:19;45.78;;;20.52;;
42084;SDS011;27746;52.228;20.890;2023-12-07T07:37:48;59.35;;;24.83;;
42084;SDS011;27746;52.228;20.890;2023-12-07T07:40:15;47.17;;;19.92;;
42084;SDS011;27746;52.228;20.890;2023-12-07T07:42:42;52.55;;;21.50;;
42084;SDS011;27746;52.228;20.890;2023-12-07T07:45:09;52.72;;;20.98;;
42084;SDS011;27746;52.228;20.890;2023-12-07T07:47:36;43.28;;;19.50;;
42084;SDS011;27746;52.228;20.890;2023-12-07T07:50:03;49.22;;;20.33;;
42084;SDS011;27746;52.228;20.890;2023-12-07T07:52:31;46.15;;;19.88;;
42084;SDS011;27746;52.228;20.890;2023-12-07T07:55:00;47.70;;;20.42;;
42084;SDS011;27746;52.228;20.890;2023-12-07T07:57:28;50.42;;;20.70;;
42084;SDS011;27746;52.228;20.890;2023-12-07T07:59:56;45.78;;;20.80;;
42084;SDS011;27746;52.228;20.890;2023-12-07T08:02:24;48.20;;;21.52;;
42084;SDS011;27746;52.228;20.890;2023-12-07T08:04:51;43.92;;;22.60;;
42084;SDS011;27746;52.228;20.890;2023-12-07T08:07:18;43.58;;;19.35;;
42084;SDS011;27746;52.228;20.890;2023-12-07T08:09:45;51.97;;;19.92;;
42084;SDS011;27746;52.228;20.890;2023-12-07T08:12:13;46.22;;;21.17;;
42084;SDS011;27746;52.228;20.890;2023-12-07T08:14:40;47.35;;;19.38;;
42084;SDS011;27746;52.228;20.890;2023-12-07T08:17:08;52.70;;;20.23;;
42084;SDS011;27746;52.228;20.890;2023-12-07T08:19:35;45.03;;;21.20;;
42084;SDS011;27746;52.228;20.890;2023-12-07T08:22:03;45.95;;;20.45;;
42084;SDS011;27746;52.228;20.890;2023-12-07T08:24:30;51.15;;;21.38;;
42084;SDS011;27746;52.228;20.890;2023-12-07T08:26:58;49.22;;;21.92;;
42084;SDS011;27746;52.228;20.890;2023-12-07T08:29:27;41.75;;;19.23;;
42084;SDS011;27746;52.228;20.890;2023-12-07T08:31:54;47.03;;;22.95;;
42084;SDS011;27746;52.228;20.890;2023-12-07T08:34:21;45.35;;;21.20;;
42084;SDS011;27746;52.228;20.890;2023-12-07T08:36:49;42.35;;;20.23;;
42084;SDS011;27746;52.228;20.890;2023-12-07T08:39:16;51.50;;;22.98;;
42084;SDS011;27746;52.228;20.890;2023-12-07T08:41:43;42.38;;;20.45;;
42084;SDS011;27746;52.228;20.890;2023-12-07T08:44:11;51.50;;;19.08;;
42084;SDS011;27746;52.228;20.890;2023-12-07T08:46:39;48.40;;;21.17;;
42084;SDS011;27746;52.228;20.890;2023-12-07T08:49:10;56.42;;;22.42;;
42084;SDS011;27746;52.228;20.890;2023-12-07T08:51:37;44.03;;;20.27;;
42084;SDS011;27746;52.228;20.890;2023-12-07T08:54:04;48.30;;;22.48;;
42084;SDS011;27746;52.228;20.890;2023-12-07T08:56:31;46.55;;;23.75;;
42084;SDS011;27746;52.228;20.890;2023-12-07T08:58:58;41.78;;;20.98;;
42084;SDS011;27746;52.228;20.890;2023-12-07T09:01:25;49.38;;;21.30;;
42084;SDS011;27746;52.228;20.890;2023-12-07T09:03:54;48.45;;;21.52;;
42084;SDS011;27746;52.228;20.890;2023-12-07T09:06:21;47.85;;;21.58;;
42084;SDS011;27746;52.228;20.890;2023-12-07T09:08:48;49.53;;;21.90;;
42084;SDS011;27746;52.228;20.890;2023-12-07T09:11:15;47.38;;;20.90;;
42084;SDS011;27746;52.228;20.890;2023-12-07T09:13:42;47.90;;;20.55;;
42084;SDS011;27746;52.228;20.890;2023-12-07T09:16:09;50.13;;;23.02;;
42084;SDS011;27746;52.228;20.890;2023-12-07T09:18:37;45.05;;;21.98;;
42084;SDS011;27746;52.228;20.890;2023-12-07T09:21:06;46.70;;;23.02;;
42084;SDS011;27746;52.228;20.890;2023-12-07T09:23:33;46.70;;;21.55;;
42084;SDS011;27746;52.228;20.890;2023-12-07T09:26:02;45.85;;;21.58;;
42084;SDS011;27746;52.228;20.890;2023-12-07T09:28:29;47.83;;;21.15;;
42084;SDS011;27746;52.228;20.890;2023-12-07T09:30:58;46.38;;;19.98;;
42084;SDS011;27746;52.228;20.890;2023-12-07T09:33:25;51.08;;;22.58;;
42084;SDS011;27746;52.228;20.890;2023-12-07T09:35:53;47.53;;;22.20;;
42084;SDS011;27746;52.228;20.890;2023-12-07T09:38:21;44.35;;;22.55;;
42084;SDS011;27746;52.228;20.890;2023-12-07T09:40:52;57.58;;;23.63;;
42084;SDS011;27746;52.228;20.890;2023-12-07T09:43:19;48.97;;;22.65;;
42084;SDS011;27746;52.228;20.890;2023-12-07T09:45:46;49.92;;;21.52;;
42084;SDS011;27746;52.228;20.890;2023-12-07T09:48:14;53.47;;;22.45;;
42084;SDS011;27746;52.228;20.890;2023-12-07T09:50:42;46.80;;;23.00;;
42084;SDS011;27746;52.228;20.890;2023-12-07T09:53:09;51.05;;;23.17;;
42084;SDS011;27746;52.228;20.890;2023-12-07T09:55:38;53.70;;;23.52;;
42084;SDS011;27746;52.228;20.890;2023-12-07T09:58:05;53.58;;;23.38;;
42084;SDS011;27746;52.228;20.890;2023-12-07T10:00:33;49.25;;;22.67;;
42084;SDS011;27746;52.228;20.890;2023-12-07T10:03:00;50.17;;;22.83;;
42084;SDS011;27746;52.228;20.890;2023-12-07T10:05:27;51.25;;;23.17;;
42084;SDS011;27746;52.228;20.890;2023-12-07T10:07:54;46.50;;;23.83;;
42084;SDS011;27746;52.228;20.890;2023-12-07T10:10:21;48.13;;;22.10;;
42084;SDS011;27746;52.228;20.890;2023-12-07T10:12:52;51.50;;;23.90;;
42084;SDS011;27746;52.228;20.890;2023-12-07T10:15:20;52.80;;;24.42;;
42084;SDS011;27746;52.228;20.890;2023-12-07T10:17:48;51.72;;;21.20;;
42084;SDS011;27746;52.228;20.890;2023-12-07T10:20:15;50.92;;;24.73;;
42084;SDS011;27746;52.228;20.890;2023-12-07T10:22:43;50.38;;;21.27;;
42084;SDS011;27746;52.228;20.890;2023-12-07T10:25:10;52.28;;;23.63;;
42084;SDS011;27746;52.228;20.890;2023-12-07T10:27:38;52.60;;;25.05;;
42084;SDS011;27746;52.228;20.890;2023-12-07T10:30:10;53.50;;;23.67;;
42084;SDS011;27746;52.228;20.890;2023-12-07T10:32:37;54.95;;;21.45;;
42084;SDS011;27746;52.228;20.890;2023-12-07T10:35:08;47.08;;;22.65;;
42084;SDS011;27746;52.228;20.890;2023-12-07T10:37:36;48.60;;;21.20;;
42084;SDS011;27746;52.228;20.890;2023-12-07T10:40:04;47.47;;;21.58;;
42084;SDS011;27746;52.228;20.890;2023-12-07T10:42:33;49.65;;;22.88;;
42084;SDS011;27746;52.228;20.890;2023-12-07T10:45:03;50.58;;;23.88;;
42084;SDS011;27746;52.228;20.890;2023-12-07T10:47:32;55.08;;;24.27;;
42084;SDS011;27746;52.228;20.890;2023-12-07T10:50:00;50.50;;;23.65;;
42084;SDS011;27746;52.228;20.890;2023-12-07T10:52:28;51.80;;;23.15;;
42084;SDS011;27746;52.228;20.890;2023-12-07T10:55:00;49.55;;;22.35;;
42084;SDS011;27746;52.228;20.890;2023-12-07T10:57:29;54.08;;;24.73;;
42084;SDS011;27746;52.228;20.890;2023-12-07T10:59:56;50.70;;;24.50;;
42084;SDS011;27746;52.228;20.890;2023-12-07T11:02:24;54.92;;;22.27;;
42084;SDS011;27746;52.228;20.890;2023-12-07T11:04:53;55.38;;;23.00;;
42084;SDS011;27746;52.228;20.890;2023-12-07T11:07:23;50.83;;;21.65;;
42084;SDS011;27746;52.228;20.890;2023-12-07T11:09:51;57.10;;;24.85;;
42084;SDS011;27746;52.228;20.890;2023-12-07T11:12:23;50.33;;;23.08;;
42084;SDS011;27746;52.228;20.890;2023-12-07T11:14:51;52.30;;;23.98;;
42084;SDS011;27746;52.228;20.890;2023-12-07T11:17:20;49.80;;;23.45;;
42084;SDS011;27746;52.228;20.890;2023-12-07T11:19:48;51.30;;;23.45;;
42084;SDS011;27746;52.228;20.890;2023-12-07T11:22:16;55.35;;;23.40;;
42084;SDS011;27746;52.228;20.890;2023-12-07T11:24:53;51.15;;;23.20;;
42084;SDS011;27746;52.228;20.890;2023-12-07T11:27:22;47.40;;;23.30;;
42084;SDS011;27746;52.228;20.890;2023-12-07T11:29:49;53.88;;;23.40;;
42084;SDS011;27746;52.228;20.890;2023-12-07T11:32:17;51.28;;;25.23;;
42084;SDS011;27746;52.228;20.890;2023-12-07T11:34:44;53.35;;;24.20;;
42084;SDS011;27746;52.228;20.890;2023-12-07T11:37:14;48.88;;;22.77;;
42084;SDS011;27746;52.228;20.890;2023-12-07T11:39:43;46.83;;;23.40;;
42084;SDS011;27746;52.228;20.890;2023-12-07T11:42:11;53.80;;;22.50;;
42084;SDS011;27746;52.228;20.890;2023-12-07T11:44:39;56.92;;;24.50;;
42084;SDS011;27746;52.228;20.890;2023-12-07T11:47:06;51.72;;;24.15;;
42084;SDS011;27746;52.228;20.890;2023-12-07T11:49:34;52.90;;;23.73;;
42084;SDS011;27746;52.228;20.890;2023-12-07T11:52:11;50.67;;;22.80;;
42084;SDS011;27746;52.228;20.890;2023-12-07T11:54:39;53.03;;;24.42;;
42084;SDS011;27746;52.228;20.890;2023-12-07T11:57:09;54.00;;;22.40;;
42084;SDS011;27746;52.228;20.890;2023-12-07T11:59:36;50.33;;;22.40;;
42084;SDS011;27746;52.228;20.890;2023-12-07T12:02:03;45.42;;;22.85;;
42084;SDS011;27746;52.228;20.890;2023-12-07T12:04:31;54.38;;;23.33;;
42084;SDS011;27746;52.228;20.890;2023-12-07T12:06:58;44.78;;;22.45;;
42084;SDS011;27746;52.228;20.890;2023-12-07T12:09:25;47.33;;;22.95;;
42084;SDS011;27746;52.228;20.890;2023-12-07T12:11:52;49.58;;;24.63;;
42084;SDS011;27746;52.228;20.890;2023-12-07T12:14:21;55.72;;;27.08;;
42084;SDS011;27746;52.228;20.890;2023-12-07T12:16:48;53.97;;;24.55;;
42084;SDS011;27746;52.228;20.890;2023-12-07T12:19:16;50.63;;;23.85;;
42084;SDS011;27746;52.228;20.890;2023-12-07T12:21:43;56.08;;;24.92;;
42084;SDS011;27746;52.228;20.890;2023-12-07T12:24:12;56.47;;;24.05;;
42084;SDS011;27746;52.228;20.890;2023-12-07T12:26:40;49.97;;;23.73;;
42084;SDS011;27746;52.228;20.890;2023-12-07T12:29:08;46.03;;;22.60;;
42084;SDS011;27746;52.228;20.890;2023-12-07T12:31:38;47.22;;;22.90;;
42084;SDS011;27746;52.228;20.890;2023-12-07T12:34:06;55.50;;;24.38;;
42084;SDS011;27746;52.228;20.890;2023-12-07T12:36:33;54.70;;;23.65;;
42084;SDS011;27746;52.228;20.890;2023-12-07T12:39:00;52.60;;;25.15;;
42084;SDS011;27746;52.228;20.890;2023-12-07T12:41:28;54.40;;;24.73;;
42084;SDS011;27746;52.228;20.890;2023-12-07T12:43:56;51.92;;;23.10;;
42084;SDS011;27746;52.228;20.890;2023-12-07T12:46:25;49.45;;;24.30;;
42084;SDS011;27746;52.228;20.890;2023-12-07T12:48:54;52.97;;;26.13;;
42084;SDS011;27746;52.228;20.890;2023-12-07T12:51:22;50.60;;;25.00;;
42084;SDS011;27746;52.228;20.890;2023-12-07T12:53:50;51.03;;;26.73;;
42084;SDS011;27746;52.228;20.890;2023-12-07T12:56:18;49.10;;;22.48;;
42084;SDS011;27746;52.228;20.890;2023-12-07T12:58:45;58.42;;;25.45;;
42084;SDS011;27746;52.228;20.890;2023-12-07T13:01:12;54.30;;;25.00;;
42084;SDS011;27746;52.228;20.890;2023-12-07T13:03:41;52.10;;;25.67;;
42084;SDS011;27746;52.228;20.890;2023-12-07T13:06:09;55.22;;;26.10;;
42084;SDS011;27746;52.228;20.890;2023-12-07T13:08:36;55.83;;;25.00;;
42084;SDS011;27746;52.228;20.890;2023-12-07T13:11:03;55.42;;;26.35;;
42084;SDS011;27746;52.228;20.890;2023-12-07T13:13:31;63.92;;;28.20;;
42084;SDS011;27746;52.228;20.890;2023-12-07T13:15:58;63.28;;;26.05;;
42084;SDS011;27746;52.228;20.890;2023-12-07T13:18:25;51.63;;;23.90;;
42084;SDS011;27746;52.228;20.890;2023-12-07T13:20:52;60.88;;;26.60;;
42084;SDS011;27746;52.228;20.890;2023-12-07T13:23:21;50.60;;;23.77;;
42084;SDS011;27746;52.228;20.890;2023-12-07T13:25:48;56.15;;;25.73;;
42084;SDS011;27746;52.228;20.890;2023-12-07T13:28:15;56.22;;;25.83;;
42084;SDS011;27746;52.228;20.890;2023-12-07T13:30:42;54.65;;;25.35;;
42084;SDS011;27746;52.228;20.890;2023-12-07T13:33:09;54.47;;;25.92;;
42084;SDS011;27746;52.228;20.890;2023-12-07T13:35:37;55.97;;;27.45;;
42084;SDS011;27746;52.228;20.890;2023-12-07T13:38:04;52.08;;;24.00;;
42084;SDS011;27746;52.228;20.890;2023-12-07T13:40:32;54.97;;;24.67;;
42084;SDS011;27746;52.228;20.890;2023-12-07T13:43:02;51.40;;;25.25;;
42084;SDS011;27746;52.228;20.890;2023-12-07T13:45:29;60.83;;;26.05;;
42084;SDS011;27746;52.228;20.890;2023-12-07T13:47:57;52.50;;;22.75;;
42084;SDS011;27746;52.228;20.890;2023-12-07T13:50:24;58.45;;;26.23;;
42084;SDS011;27746;52.228;20.890;2023-12-07T13:52:52;52.00;;;24.40;;
42084;SDS011;27746;52.228;20.890;2023-12-07T13:55:19;47.22;;;24.23;;
42084;SDS011;27746;52.228;20.890;2023-12-07T13:57:50;51.90;;;23.50;;
42084;SDS011;27746;52.228;20.890;2023-12-07T14:00:19;50.97;;;23.30;;
42084;SDS011;27746;52.228;20.890;2023-12-07T14:02:47;51.03;;;24.15;;
42084;SDS011;27746;52.228;20.890;2023-12-07T14:05:14;49.83;;;25.30;;
42084;SDS011;27746;52.228;20.890;2023-12-07T14:07:43;54.20;;;24.88;;
42084;SDS011;27746;52.228;20.890;2023-12-07T14:10:11;58.38;;;25.70;;
42084;SDS011;27746;52.228;20.890;2023-12-07T14:12:38;59.40;;;26.83;;
42084;SDS011;27746;52.228;20.890;2023-12-07T14:15:07;57.85;;;26.25;;